Time;durP1;ratioP1;P1;durP2;ratioP2;P2;SDS_P1;SDS_P2;PMS_P1;PMS_P2;Temp;Humidity;BMP_temperature;BMP_pressure;BME280_temperature;BME280_humidity;BME280_pressure;Samples;Min_cycle;Max_cycle;Signal;HPM_P1;HPM_P2
2024/02/02 00:01:35;;;;;;;43.78;5.00;;;;;;;;;;5096619;28;20086;-71
2024/02/02 00:04:21;;;;;;;28.85;5.00;;;;;;;;;;5094659;28;20020;-71
2024/02/02 00:07:07;;;;;;;23.65;4.38;;;;;;;;;;5096956;28;20020;-71
2024/02/02 00:09:52;;;;;;;17.58;4.47;;;;;;;;;;5081223;28;20366;-71
2024/02/02 00:12:38;;;;;;;27.35;4.03;;;;;;;;;;5095655;28;20026;-71
2024/02/02 00:15:24;;;;;;;12.05;3.92;;;;;;;;;;5094957;28;20512;-71
2024/02/02 00:18:09;;;;;;;26.88;5.03;;;;;;;;;;5080953;28;20089;-71
2024/02/02 00:20:56;;;;;;;36.10;5.05;;;;;;;;;;5094054;28;20107;-71
2024/02/02 00:23:42;;;;;;;35.40;4.28;;;;;;;;;;5079900;28;20047;-71
2024/02/02 00:26:27;;;;;;;17.25;3.10;;;;;;;;;;5094460;28;20485;-71
2024/02/02 00:29:14;;;;;;;21.35;3.22;;;;;;;;;;5095318;28;20115;-71
2024/02/02 00:31:59;;;;;;;18.17;3.63;;;;;;;;;;5096020;28;20436;-71
2024/02/02 00:34:45;;;;;;;19.90;3.25;;;;;;;;;;5101280;28;20040;-71
2024/02/02 00:37:31;;;;;;;18.63;3.85;;;;;;;;;;5110515;28;20020;-71
2024/02/02 00:40:17;;;;;;;18.08;3.80;;;;;;;;;;5096302;28;20485;-71
2024/02/02 00:43:02;;;;;;;32.80;4.93;;;;;;;;;;5094965;28;20028;-71
2024/02/02 00:45:48;;;;;;;46.50;3.90;;;;;;;;;;5095077;28;20107;-71
2024/02/02 00:48:34;;;;;;;18.27;4.43;;;;;;;;;;5080480;28;20034;-71
2024/02/02 00:51:19;;;;;;;15.60;4.07;;;;;;;;;;5080797;28;20012;-71
2024/02/02 00:54:05;;;;;;;25.10;4.70;;;;;;;;;;5093427;28;20396;-71
2024/02/02 00:56:50;;;;;;;23.05;3.60;;;;;;;;;;5079147;28;20020;-71
2024/02/02 00:59:36;;;;;;;20.50;3.92;;;;;;;;;;5093581;28;20515;-71
2024/02/02 01:02:22;;;;;;;28.15;4.20;;;;;;;;;;5079127;28;20028;-71
2024/02/02 01:05:08;;;;;;;15.98;4.32;;;;;;;;;;5095149;28;20030;-71
2024/02/02 01:07:54;;;;;;;20.25;3.60;;;;;;;;;;5078410;28;20439;-71
2024/02/02 01:10:39;;;;;;;38.75;4.78;;;;;;;;;;5094200;28;20027;-71
2024/02/02 01:13:25;;;;;;;16.00;3.45;;;;;;;;;;5096603;28;20046;-71
2024/02/02 01:16:11;;;;;;;16.27;3.28;;;;;;;;;;5087906;28;20016;-71
2024/02/02 01:18:56;;;;;;;18.58;3.65;;;;;;;;;;5093722;28;20028;-71
2024/02/02 01:21:42;;;;;;;34.40;3.95;;;;;;;;;;5093524;28;20376;-71
2024/02/02 01:24:28;;;;;;;17.08;3.97;;;;;;;;;;5093803;28;20107;-71
2024/02/02 01:27:13;;;;;;;26.35;5.72;;;;;;;;;;5094029;28;20030;-71
2024/02/02 01:29:59;;;;;;;22.33;3.72;;;;;;;;;;5093404;28;20020;-71
2024/02/02 01:32:45;;;;;;;18.88;3.67;;;;;;;;;;5079110;28;20412;-71
2024/02/02 01:35:30;;;;;;;23.02;4.85;;;;;;;;;;5094040;28;20027;-71
2024/02/02 01:38:16;;;;;;;16.83;3.80;;;;;;;;;;5092890;28;20396;-70
2024/02/02 01:41:02;;;;;;;17.77;3.83;;;;;;;;;;5114262;28;20111;-71
2024/02/02 01:43:47;;;;;;;19.48;3.10;;;;;;;;;;5113790;28;20029;-71
2024/02/02 01:46:33;;;;;;;17.50;3.03;;;;;;;;;;5114785;28;20391;-71
2024/02/02 01:49:18;;;;;;;15.75;3.47;;;;;;;;;;5113113;28;20110;-71
2024/02/02 01:52:04;;;;;;;17.83;3.40;;;;;;;;;;5113872;28;20153;-71
2024/02/02 01:54:51;;;;;;;26.88;4.47;;;;;;;;;;5101462;28;20060;-71
2024/02/02 01:57:37;;;;;;;18.02;3.67;;;;;;;;;;5093801;28;20060;-71
2024/02/02 02:00:22;;;;;;;25.60;5.03;;;;;;;;;;5077476;28;20028;-71
2024/02/02 02:03:08;;;;;;;22.00;3.92;;;;;;;;;;5096424;28;20051;-71
2024/02/02 02:05:53;;;;;;;30.58;4.38;;;;;;;;;;5094216;28;20027;-71
2024/02/02 02:08:39;;;;;;;26.45;4.95;;;;;;;;;;5094100;28;20020;-71
2024/02/02 02:11:25;;;;;;;26.50;4.82;;;;;;;;;;5078389;28;20016;-70
2024/02/02 02:14:11;;;;;;;14.35;3.78;;;;;;;;;;5093020;28;20058;-71
2024/02/02 02:16:56;;;;;;;24.55;4.22;;;;;;;;;;5092840;28;20020;-71
2024/02/02 02:19:42;;;;;;;24.17;4.20;;;;;;;;;;5079920;28;20031;-71
2024/02/02 02:22:27;;;;;;;22.40;4.00;;;;;;;;;;5092988;28;20039;-71
2024/02/02 02:25:13;;;;;;;20.00;4.72;;;;;;;;;;5072164;28;20032;-71
2024/02/02 02:27:59;;;;;;;25.13;3.95;;;;;;;;;;5078235;28;20039;-71
2024/02/02 02:30:46;;;;;;;17.70;3.67;;;;;;;;;;5072894;28;20079;-71
2024/02/02 02:33:36;;;;;;;19.02;4.82;;;;;;;;;;5083072;28;20409;-71
2024/02/02 02:36:22;;;;;;;19.25;3.75;;;;;;;;;;5072381;28;20028;-70
2024/02/02 02:39:08;;;;;;;21.05;4.13;;;;;;;;;;5072516;28;20020;-70
2024/02/02 02:41:53;;;;;;;20.40;3.55;;;;;;;;;;5093397;28;20040;-71
2024/02/02 02:44:39;;;;;;;24.08;4.93;;;;;;;;;;5091285;28;20035;-71
2024/02/02 02:47:24;;;;;;;15.50;4.78;;;;;;;;;;5092408;28;20035;-70
2024/02/02 02:50:10;;;;;;;22.13;5.55;;;;;;;;;;5092455;28;20500;-70
2024/02/02 02:52:56;;;;;;;30.17;5.22;;;;;;;;;;5078768;28;20028;-71
2024/02/02 02:55:42;;;;;;;25.33;4.10;;;;;;;;;;5085637;28;20062;-70
2024/02/02 02:58:27;;;;;;;24.02;4.97;;;;;;;;;;5086548;28;20031;-71
2024/02/02 03:01:13;;;;;;;14.13;3.13;;;;;;;;;;5089867;28;20030;-71
2024/02/02 03:03:58;;;;;;;25.83;4.07;;;;;;;;;;5097488;28;20024;-71
2024/02/02 03:06:44;;;;;;;18.55;4.55;;;;;;;;;;5080435;28;20477;-71
2024/02/02 03:09:30;;;;;;;16.40;3.90;;;;;;;;;;5096944;28;20081;-70
2024/02/02 03:12:16;;;;;;;20.02;3.88;;;;;;;;;;5095850;28;20019;-71
2024/02/02 03:15:03;;;;;;;13.45;3.47;;;;;;;;;;5060624;28;20020;-71
2024/02/02 03:17:48;;;;;;;23.48;5.15;;;;;;;;;;5080692;28;20020;-70
2024/02/02 03:20:34;;;;;;;26.13;4.60;;;;;;;;;;5082964;28;20382;-71
2024/02/02 03:23:20;;;;;;;32.30;5.25;;;;;;;;;;5094472;28;20542;-71
2024/02/02 03:26:06;;;;;;;30.20;5.15;;;;;;;;;;5077270;28;20025;-70
2024/02/02 03:28:52;;;;;;;26.23;4.28;;;;;;;;;;5075399;28;20481;-70
2024/02/02 03:31:38;;;;;;;23.77;5.10;;;;;;;;;;5093390;28;20012;-71
2024/02/02 03:34:23;;;;;;;21.88;4.85;;;;;;;;;;5095457;28;20090;-71
2024/02/02 03:37:09;;;;;;;33.33;4.43;;;;;;;;;;5095996;28;20081;-71
2024/02/02 03:39:54;;;;;;;39.33;6.47;;;;;;;;;;5096355;28;20020;-71
2024/02/02 03:42:40;;;;;;;12.80;3.35;;;;;;;;;;5094984;28;20115;-71
2024/02/02 03:45:26;;;;;;;20.73;4.57;;;;;;;;;;5095584;28;20055;-71
2024/02/02 03:48:11;;;;;;;27.52;4.93;;;;;;;;;;5095370;28;20024;-70
2024/02/02 03:50:57;;;;;;;14.52;3.83;;;;;;;;;;5095093;28;20016;-71
2024/02/02 03:53:43;;;;;;;19.00;4.40;;;;;;;;;;5095634;28;20028;-71
2024/02/02 03:56:28;;;;;;;33.03;4.63;;;;;;;;;;5080155;28;20028;-71
2024/02/02 03:59:14;;;;;;;18.42;4.85;;;;;;;;;;5079838;28;20020;-71
2024/02/02 04:02:00;;;;;;;28.65;5.78;;;;;;;;;;5096201;28;20024;-71
2024/02/02 04:04:48;;;;;;;33.67;7.47;;;;;;;;;;5080140;28;20040;-70
2024/02/02 04:07:33;;;;;;;27.65;5.20;;;;;;;;;;5078313;28;20032;-71
2024/02/02 04:10:19;;;;;;;29.17;6.13;;;;;;;;;;5093966;28;20555;-71
2024/02/02 04:13:05;;;;;;;29.15;7.57;;;;;;;;;;5070213;28;20029;-71
2024/02/02 04:15:50;;;;;;;32.28;5.80;;;;;;;;;;5076373;28;20024;-70
2024/02/02 04:18:36;;;;;;;28.42;6.15;;;;;;;;;;5081378;28;20020;-70
2024/02/02 04:21:22;;;;;;;29.48;5.38;;;;;;;;;;5074053;28;20047;-70
2024/02/02 04:24:07;;;;;;;28.75;6.38;;;;;;;;;;5079791;28;20027;-71
2024/02/02 04:26:53;;;;;;;22.05;6.10;;;;;;;;;;5094926;28;20413;-70
2024/02/02 04:29:39;;;;;;;30.92;7.55;;;;;;;;;;5094983;28;20020;-70
2024/02/02 04:32:24;;;;;;;32.08;6.00;;;;;;;;;;5095297;28;20389;-71
2024/02/02 04:35:10;;;;;;;24.05;5.20;;;;;;;;;;5095238;28;20023;-71
2024/02/02 04:37:56;;;;;;;31.58;8.35;;;;;;;;;;5095109;28;20023;-70
2024/02/02 04:40:41;;;;;;;32.80;7.75;;;;;;;;;;5076298;28;20490;-70
2024/02/02 04:43:27;;;;;;;21.38;6.13;;;;;;;;;;5074807;28;20036;-70
2024/02/02 04:46:13;;;;;;;27.77;6.18;;;;;;;;;;5088916;28;20569;-71
2024/02/02 04:48:58;;;;;;;25.55;6.15;;;;;;;;;;5093916;28;20089;-70
2024/02/02 04:51:44;;;;;;;25.80;6.00;;;;;;;;;;5093288;28;20016;-71
2024/02/02 04:54:30;;;;;;;38.00;6.82;;;;;;;;;;5094186;28;20020;-71
2024/02/02 04:57:15;;;;;;;44.20;8.68;;;;;;;;;;5092311;28;20019;-70
2024/02/02 05:00:01;;;;;;;23.67;6.22;;;;;;;;;;5075819;28;20036;-70
2024/02/02 05:02:47;;;;;;;28.35;6.22;;;;;;;;;;5075821;28;20031;-70
2024/02/02 05:05:32;;;;;;;26.00;7.28;;;;;;;;;;5093248;28;20493;-70
2024/02/02 05:08:19;;;;;;;21.90;6.43;;;;;;;;;;5092284;28;20107;-70
2024/02/02 05:11:05;;;;;;;28.75;6.93;;;;;;;;;;5074910;28;20028;-71
2024/02/02 05:13:51;;;;;;;17.02;6.10;;;;;;;;;;5073425;28;20024;-71
2024/02/02 05:16:37;;;;;;;22.33;5.75;;;;;;;;;;5090553;28;20103;-70
2024/02/02 05:19:22;;;;;;;26.13;6.30;;;;;;;;;;5093244;28;20089;-71
2024/02/02 05:22:08;;;;;;;20.42;5.68;;;;;;;;;;5094238;28;20511;-71
2024/02/02 05:24:53;;;;;;;31.02;6.78;;;;;;;;;;5093674;28;20042;-70
2024/02/02 05:27:39;;;;;;;27.45;6.68;;;;;;;;;;5070765;28;20107;-71
2024/02/02 05:30:25;;;;;;;29.65;6.63;;;;;;;;;;5075862;28;20017;-70
2024/02/02 05:33:10;;;;;;;33.75;6.68;;;;;;;;;;5085516;28;20485;-71
2024/02/02 05:35:56;;;;;;;30.52;6.78;;;;;;;;;;5094265;28;20034;-70
2024/02/02 05:38:42;;;;;;;22.10;6.45;;;;;;;;;;5093527;28;20020;-71
2024/02/02 05:41:27;;;;;;;23.25;6.45;;;;;;;;;;5094084;28;20448;-71
2024/02/02 05:44:13;;;;;;;34.78;5.65;;;;;;;;;;5093395;28;20039;-71
2024/02/02 05:46:59;;;;;;;31.42;6.78;;;;;;;;;;5093777;28;20061;-71
2024/02/02 05:49:44;;;;;;;31.90;6.65;;;;;;;;;;5092169;28;20024;-71
2024/02/02 05:52:33;;;;;;;27.73;6.88;;;;;;;;;;5095409;28;20020;-71
2024/02/02 05:55:19;;;;;;;36.15;6.68;;;;;;;;;;5079828;28;20026;-71
2024/02/02 05:58:05;;;;;;;25.48;5.65;;;;;;;;;;5094576;28;20024;-71
2024/02/02 06:00:51;;;;;;;36.80;7.13;;;;;;;;;;5094336;28;20020;-71
2024/02/02 06:03:36;;;;;;;29.40;8.13;;;;;;;;;;5094255;28;20024;-71
2024/02/02 06:06:22;;;;;;;29.20;6.38;;;;;;;;;;5093395;28;20024;-71
2024/02/02 06:09:09;;;;;;;39.35;6.68;;;;;;;;;;5094427;28;20087;-71
2024/02/02 06:11:55;;;;;;;31.02;6.05;;;;;;;;;;5093049;28;20032;-71
2024/02/02 06:14:41;;;;;;;32.35;7.05;;;;;;;;;;5092872;28;20048;-71
2024/02/02 06:17:26;;;;;;;33.72;6.18;;;;;;;;;;5094578;28;20103;-71
2024/02/02 06:20:12;;;;;;;27.85;6.03;;;;;;;;;;5092775;28;20020;-71
2024/02/02 06:23:00;;;;;;;31.75;6.63;;;;;;;;;;5094593;28;20024;-71
2024/02/02 06:25:46;;;;;;;22.00;6.35;;;;;;;;;;5094302;28;20392;-71
2024/02/02 06:28:32;;;;;;;18.92;5.35;;;;;;;;;;5093519;28;20034;-70
2024/02/02 06:31:19;;;;;;;33.20;4.68;;;;;;;;;;5092579;28;20024;-71
2024/02/02 06:34:05;;;;;;;21.60;6.65;;;;;;;;;;5092962;28;20370;-71
2024/02/02 06:36:51;;;;;;;35.22;5.70;;;;;;;;;;5096917;28;20106;-71
2024/02/02 06:39:36;;;;;;;26.38;5.18;;;;;;;;;;5097629;28;20024;-70
2024/02/02 06:42:24;;;;;;;19.65;5.10;;;;;;;;;;5098041;28;20387;-70
2024/02/02 06:45:10;;;;;;;15.55;5.50;;;;;;;;;;5098704;28;20028;-71
2024/02/02 06:47:56;;;;;;;31.25;6.03;;;;;;;;;;5083136;28;20480;-71
2024/02/02 06:50:43;;;;;;;41.63;6.35;;;;;;;;;;5097778;28;20022;-71
2024/02/02 06:53:30;;;;;;;34.03;5.68;;;;;;;;;;5083103;28;20035;-71
2024/02/02 06:56:41;;;;;;;26.33;5.25;;;;;;;;;;5082188;28;20056;-71
2024/02/02 06:59:27;;;;;;;23.05;5.97;;;;;;;;;;5082716;28;20024;-71
2024/02/02 07:02:19;;;;;;;34.88;6.68;;;;;;;;;;5081642;28;20424;-71
2024/02/02 07:05:05;;;;;;;21.23;7.07;;;;;;;;;;5095326;28;20089;-71
2024/02/02 07:07:50;;;;;;;21.27;5.60;;;;;;;;;;5084385;28;20397;-71
2024/02/02 07:10:36;;;;;;;25.10;5.80;;;;;;;;;;5101254;28;20022;-70
2024/02/02 07:13:21;;;;;;;30.52;5.57;;;;;;;;;;5061985;28;20412;-71
2024/02/02 07:16:13;;;;;;;25.40;5.00;;;;;;;;;;5096084;28;20020;-71
2024/02/02 07:18:59;;;;;;;22.67;4.72;;;;;;;;;;5081157;28;20028;-71
2024/02/02 07:21:44;;;;;;;22.38;5.20;;;;;;;;;;5081745;28;20020;-71
2024/02/02 07:24:30;;;;;;;13.50;4.28;;;;;;;;;;5096737;28;20489;-71
2024/02/02 07:27:30;;;;;;;34.90;5.90;;;;;;;;;;5096788;28;20028;-70
2024/02/02 07:30:44;;;;;;;25.95;5.50;;;;;;;;;;5096926;28;20016;-71
2024/02/02 07:33:37;;;;;;;22.33;5.18;;;;;;;;;;5095398;28;20024;-71
2024/02/02 07:36:33;;;;;;;41.17;6.30;;;;;;;;;;5095814;28;20031;-70
2024/02/02 07:39:30;;;;;;;25.80;5.85;;;;;;;;;;5082227;28;20032;-71
2024/02/02 07:42:15;;;;;;;30.80;5.32;;;;;;;;;;5073379;28;20033;-71
2024/02/02 07:45:01;;;;;;;27.40;5.75;;;;;;;;;;5097774;28;20050;-71
2024/02/02 07:47:47;;;;;;;27.90;5.80;;;;;;;;;;5079537;28;20549;-71
2024/02/02 07:50:34;;;;;;;35.03;6.80;;;;;;;;;;5095950;28;20103;-71
2024/02/02 07:53:20;;;;;;;31.88;6.18;;;;;;;;;;5107979;28;20062;-71
2024/02/02 07:56:06;;;;;;;39.35;6.13;;;;;;;;;;5116002;28;20373;-71
2024/02/02 07:58:51;;;;;;;34.75;5.63;;;;;;;;;;5100079;28;20022;-71
2024/02/02 08:01:37;;;;;;;30.42;7.85;;;;;;;;;;5116142;28;20031;-70
2024/02/02 08:04:23;;;;;;;30.85;6.18;;;;;;;;;;5105492;28;20036;-71
2024/02/02 08:07:09;;;;;;;32.50;6.80;;;;;;;;;;5080435;28;20085;-71
2024/02/02 08:09:54;;;;;;;23.48;6.85;;;;;;;;;;5095894;28;20088;-71
2024/02/02 08:12:40;;;;;;;23.85;5.60;;;;;;;;;;5097562;28;20461;-71
2024/02/02 08:15:26;;;;;;;21.42;4.60;;;;;;;;;;5095587;28;20103;-70
2024/02/02 08:18:12;;;;;;;25.88;7.20;;;;;;;;;;5080114;28;20020;-71
2024/02/02 08:20:57;;;;;;;27.23;5.63;;;;;;;;;;5094283;28;20097;-70
2024/02/02 08:23:43;;;;;;;23.05;4.63;;;;;;;;;;5099093;28;20023;-71
2024/02/02 08:26:29;;;;;;;25.48;8.18;;;;;;;;;;5099216;28;20117;-71
2024/02/02 08:29:16;;;;;;;25.17;5.57;;;;;;;;;;5079955;28;20128;-71
2024/02/02 08:32:05;;;;;;;19.52;4.38;;;;;;;;;;5094911;28;20400;-71
2024/02/02 08:34:51;;;;;;;22.77;4.40;;;;;;;;;;5107797;28;20024;-71
2024/02/02 08:37:38;;;;;;;17.60;5.55;;;;;;;;;;5114024;28;20102;-71
2024/02/02 08:40:38;;;;;;;18.63;6.05;;;;;;;;;;5113684;28;20020;-71
2024/02/02 08:43:25;;;;;;;17.48;6.25;;;;;;;;;;5115714;28;20038;-72
2024/02/02 08:46:12;;;;;;;16.73;5.95;;;;;;;;;;5115890;28;20016;-71
2024/02/02 08:48:58;;;;;;;19.48;4.82;;;;;;;;;;5100235;28;20472;-71
2024/02/02 08:51:49;;;;;;;19.77;5.88;;;;;;;;;;5104803;28;20077;-70
2024/02/02 08:54:36;;;;;;;30.92;5.88;;;;;;;;;;5079953;28;20023;-71
2024/02/02 08:57:35;;;;;;;29.55;5.97;;;;;;;;;;5094704;28;20463;-71
2024/02/02 09:00:41;;;;;;;34.42;5.78;;;;;;;;;;5093480;28;20024;-72
2024/02/02 09:03:44;;;;;;;34.75;7.47;;;;;;;;;;5079500;28;20024;-71
2024/02/02 09:06:30;;;;;;;23.92;5.88;;;;;;;;;;5079753;28;20507;-71
2024/02/02 09:09:20;;;;;;;45.50;8.23;;;;;;;;;;5093879;28;20051;-72
2024/02/02 09:12:05;;;;;;;29.35;7.00;;;;;;;;;;5079831;28;20016;-71
2024/02/02 09:14:51;;;;;;;32.15;5.53;;;;;;;;;;5094816;28;20101;-71
2024/02/02 09:17:37;;;;;;;34.67;6.97;;;;;;;;;;5093974;28;20016;-71
2024/02/02 09:20:39;;;;;;;28.13;6.05;;;;;;;;;;5095380;28;20028;-71
2024/02/02 09:23:25;;;;;;;33.17;7.03;;;;;;;;;;5080111;28;20118;-71
2024/02/02 09:26:11;;;;;;;42.45;7.47;;;;;;;;;;5080396;28;20048;-71
2024/02/02 09:28:59;;;;;;;30.63;5.93;;;;;;;;;;5093358;28;20023;-71
2024/02/02 09:31:45;;;;;;;24.50;6.20;;;;;;;;;;5083940;28;20051;-71
2024/02/02 09:34:32;;;;;;;34.05;6.25;;;;;;;;;;5085281;28;20066;-71
2024/02/02 09:37:42;;;;;;;39.58;6.53;;;;;;;;;;5077795;28;20516;-70
2024/02/02 09:41:01;;;;;;;25.02;7.15;;;;;;;;;;5096554;28;20485;-70
2024/02/02 09:43:56;;;;;;;36.08;7.47;;;;;;;;;;5101493;28;20065;-72
2024/02/02 09:46:47;;;;;;;51.40;8.98;;;;;;;;;;5097787;28;20063;-71
2024/02/02 09:49:52;;;;;;;56.22;9.32;;;;;;;;;;5096074;28;20032;-71
2024/02/02 09:52:44;;;;;;;46.17;7.43;;;;;;;;;;5080475;28;20102;-71
2024/02/02 09:55:41;;;;;;;33.30;7.57;;;;;;;;;;5095039;28;20123;-71
2024/02/02 09:58:31;;;;;;;31.00;8.30;;;;;;;;;;5094682;28;20024;-71
2024/02/02 10:01:28;;;;;;;46.53;7.35;;;;;;;;;;5073847;28;20048;-71
2024/02/02 10:04:33;;;;;;;54.90;7.88;;;;;;;;;;5083834;28;20080;-71
2024/02/02 10:07:41;;;;;;;51.42;8.75;;;;;;;;;;5072551;28;20020;-71
2024/02/02 10:10:36;;;;;;;33.22;6.68;;;;;;;;;;5070966;28;20098;-71
2024/02/02 10:13:49;;;;;;;29.58;5.70;;;;;;;;;;5060551;28;20631;-71
2024/02/02 10:17:06;;;;;;;33.88;6.03;;;;;;;;;;5059454;28;20408;-71
2024/02/02 10:19:51;;;;;;;42.05;7.90;;;;;;;;;;5080754;28;20097;-71
2024/02/02 10:23:00;;;;;;;49.55;7.82;;;;;;;;;;5088906;28;20067;-71
2024/02/02 10:26:04;;;;;;;38.40;7.93;;;;;;;;;;5088221;28;20123;-71
2024/02/02 10:28:56;;;;;;;40.75;8.40;;;;;;;;;;5083556;28;20439;-72
2024/02/02 10:32:17;;;;;;;41.70;8.20;;;;;;;;;;5079140;28;20023;-71
2024/02/02 10:35:29;;;;;;;34.55;8.30;;;;;;;;;;5083113;28;20033;-71
2024/02/02 10:38:33;;;;;;;33.53;8.50;;;;;;;;;;5081361;28;20020;-71
2024/02/02 10:41:28;;;;;;;35.92;7.05;;;;;;;;;;5084318;28;20035;-70
2024/02/02 10:44:39;;;;;;;39.58;7.65;;;;;;;;;;5080947;28;20028;-70
2024/02/02 10:47:47;;;;;;;42.67;6.85;;;;;;;;;;5072880;28;20092;-71
2024/02/02 10:50:54;;;;;;;30.05;6.50;;;;;;;;;;5088197;28;20552;-71
2024/02/02 10:54:06;;;;;;;41.10;9.75;;;;;;;;;;5071887;28;20028;-70
2024/02/02 10:57:02;;;;;;;42.35;7.60;;;;;;;;;;5066538;28;20032;-70
2024/02/02 11:00:07;;;;;;;26.45;6.03;;;;;;;;;;5073443;28;20020;-71
2024/02/02 11:03:15;;;;;;;42.90;9.93;;;;;;;;;;5077139;28;20107;-71
2024/02/02 11:06:07;;;;;;;37.13;6.93;;;;;;;;;;5097287;28;20024;-71
2024/02/02 11:08:58;;;;;;;39.17;7.65;;;;;;;;;;5091932;28;20020;-71
2024/02/02 11:11:47;;;;;;;38.97;8.05;;;;;;;;;;5092002;28;20021;-71
2024/02/02 11:14:39;;;;;;;43.97;7.50;;;;;;;;;;5092833;28;20481;-72
2024/02/02 11:17:33;;;;;;;52.75;8.35;;;;;;;;;;5078807;28;20484;-71
2024/02/02 11:20:35;;;;;;;44.75;7.53;;;;;;;;;;5078090;28;20020;-71
2024/02/02 11:23:46;;;;;;;27.42;7.32;;;;;;;;;;5094076;28;20042;-71
2024/02/02 11:26:39;;;;;;;41.20;7.90;;;;;;;;;;5090593;28;20409;-72
2024/02/02 11:29:46;;;;;;;30.27;6.63;;;;;;;;;;5087291;28;20024;-72
2024/02/02 11:32:52;;;;;;;31.33;5.93;;;;;;;;;;5091617;28;20038;-71
2024/02/02 11:36:02;;;;;;;27.15;8.48;;;;;;;;;;5066907;28;20489;-72
2024/02/02 11:39:13;;;;;;;33.13;6.55;;;;;;;;;;5075095;28;20060;-72
2024/02/02 11:41:59;;;;;;;50.78;10.77;;;;;;;;;;5064206;28;20464;-72
2024/02/02 11:44:46;;;;;;;48.90;7.82;;;;;;;;;;5073968;28;20036;-72
2024/02/02 11:47:41;;;;;;;55.58;8.52;;;;;;;;;;5074616;28;20031;-72
2024/02/02 11:50:30;;;;;;;54.85;10.13;;;;;;;;;;5078411;28;20099;-72
2024/02/02 11:53:35;;;;;;;36.58;8.80;;;;;;;;;;5080448;28;20477;-72
2024/02/02 11:56:24;;;;;;;43.10;7.13;;;;;;;;;;5081153;28;20026;-72
2024/02/02 11:59:35;;;;;;;37.42;7.22;;;;;;;;;;5080841;28;20469;-72
2024/02/02 12:02:36;;;;;;;33.55;8.38;;;;;;;;;;5074792;28;20486;-72
2024/02/02 12:05:24;;;;;;;46.28;10.50;;;;;;;;;;5095868;28;20024;-73
2024/02/02 12:08:56;;;;;;;38.00;7.50;;;;;;;;;;5080182;28;20056;-73
2024/02/02 12:11:47;;;;;;;39.40;6.93;;;;;;;;;;5036941;28;20056;-72
2024/02/02 12:14:36;;;;;;;37.45;8.45;;;;;;;;;;5060627;28;20420;-72
2024/02/02 12:17:22;;;;;;;39.58;8.40;;;;;;;;;;5075722;28;20024;-72
2024/02/02 12:20:10;;;;;;;39.75;6.55;;;;;;;;;;5080177;28;20024;-72
2024/02/02 12:22:55;;;;;;;44.08;7.03;;;;;;;;;;5093764;28;20107;-72
2024/02/02 12:25:41;;;;;;;40.90;7.63;;;;;;;;;;5094561;28;20463;-72
2024/02/02 12:28:27;;;;;;;38.28;7.45;;;;;;;;;;5094527;28;20127;-72
2024/02/02 12:31:12;;;;;;;37.10;7.90;;;;;;;;;;5093786;28;20089;-72
2024/02/02 12:33:58;;;;;;;62.38;17.50;;;;;;;;;;5094499;28;20020;-72
2024/02/02 12:36:44;;;;;;;43.15;7.30;;;;;;;;;;5095824;28;20020;-72
2024/02/02 12:39:36;;;;;;;36.13;8.95;;;;;;;;;;5093864;28;20016;-72
2024/02/02 12:42:23;;;;;;;54.35;11.27;;;;;;;;;;5094164;28;20039;-72
2024/02/02 12:45:11;;;;;;;45.22;9.07;;;;;;;;;;5079546;28;20085;-72
2024/02/02 12:47:58;;;;;;;37.90;8.88;;;;;;;;;;5094399;28;20020;-72
2024/02/02 12:50:44;;;;;;;46.83;9.60;;;;;;;;;;5079296;28;20020;-72
2024/02/02 12:53:29;;;;;;;42.65;9.50;;;;;;;;;;5093461;28;20020;-73
2024/02/02 12:56:17;;;;;;;45.10;13.18;;;;;;;;;;5079961;28;20034;-72
2024/02/02 12:59:04;;;;;;;72.70;12.07;;;;;;;;;;5095410;28;20103;-72
2024/02/02 13:01:50;;;;;;;44.80;8.63;;;;;;;;;;5074858;28;20035;-72
2024/02/02 13:04:36;;;;;;;36.42;8.40;;;;;;;;;;5085255;28;20370;-72
2024/02/02 13:07:22;;;;;;;47.00;10.15;;;;;;;;;;5114250;28;20024;-71
2024/02/02 13:10:10;;;;;;;35.38;8.80;;;;;;;;;;5094277;28;20489;-72
2024/02/02 13:12:55;;;;;;;38.15;9.02;;;;;;;;;;5073406;28;20024;-72
2024/02/02 13:15:41;;;;;;;47.63;11.07;;;;;;;;;;5073504;28;20422;-72
2024/02/02 13:18:28;;;;;;;44.28;9.23;;;;;;;;;;5097940;28;20024;-72
2024/02/02 13:21:27;;;;;;;38.58;9.73;;;;;;;;;;5113427;28;20043;-71
2024/02/02 13:24:19;;;;;;;47.72;10.90;;;;;;;;;;5104736;28;20023;-71
2024/02/02 13:27:05;;;;;;;41.10;10.23;;;;;;;;;;5112502;28;20101;-71
2024/02/02 13:29:56;;;;;;;46.30;9.77;;;;;;;;;;5097647;28;20139;-71
2024/02/02 13:32:42;;;;;;;38.20;10.90;;;;;;;;;;5078805;28;20028;-71
2024/02/02 13:35:31;;;;;;;37.47;11.35;;;;;;;;;;5078370;28;20405;-71
2024/02/02 13:38:16;;;;;;;33.92;7.72;;;;;;;;;;5093887;28;20031;-71
2024/02/02 13:41:04;;;;;;;28.08;9.75;;;;;;;;;;5092882;28;20031;-71
2024/02/02 13:43:56;;;;;;;29.83;8.38;;;;;;;;;;5093726;28;20027;-71
2024/02/02 13:46:45;;;;;;;28.98;7.60;;;;;;;;;;5092456;28;20052;-71
2024/02/02 13:49:32;;;;;;;24.40;7.93;;;;;;;;;;5093953;28;20451;-71
2024/02/02 13:52:18;;;;;;;43.20;9.05;;;;;;;;;;5093236;28;20583;-71
2024/02/02 13:55:06;;;;;;;34.85;9.02;;;;;;;;;;5078748;28;20045;-71
2024/02/02 13:57:56;;;;;;;31.02;9.40;;;;;;;;;;5094250;28;20028;-71
2024/02/02 14:00:42;;;;;;;;;;;;;;;;;;5092994;28;20062;-71
2024/02/02 14:03:27;;;;;;;38.60;8.85;;;;;;;;;;5106117;28;19935;-71
2024/02/02 14:06:13;;;;;;;35.63;8.68;;;;;;;;;;5105334;28;20030;-71
2024/02/02 14:08:59;;;;;;;38.85;7.28;;;;;;;;;;5112641;28;20027;-71
2024/02/02 14:11:45;;;;;;;33.05;8.88;;;;;;;;;;5087212;28;20107;-71
2024/02/02 14:14:30;;;;;;;39.60;9.35;;;;;;;;;;5087645;28;20390;-72
2024/02/02 14:17:18;;;;;;;37.75;8.38;;;;;;;;;;5075889;28;20030;-72
2024/02/02 14:20:05;;;;;;;39.38;8.40;;;;;;;;;;5070577;28;20043;-71
2024/02/02 14:22:51;;;;;;;46.05;8.18;;;;;;;;;;5086468;28;20095;-72
2024/02/02 14:25:37;;;;;;;21.05;6.68;;;;;;;;;;5083535;28;20023;-72
2024/02/02 14:28:22;;;;;;;29.50;7.47;;;;;;;;;;5084316;28;20024;-72
2024/02/02 14:31:10;;;;;;;34.13;9.40;;;;;;;;;;5089295;28;20477;-72
2024/02/02 14:33:56;;;;;;;56.15;17.75;;;;;;;;;;5085967;28;20111;-72
2024/02/02 14:36:42;;;;;;;45.13;11.23;;;;;;;;;;5075044;28;20040;-72
2024/02/02 14:39:27;;;;;;;52.97;18.10;;;;;;;;;;5070632;28;20028;-71
2024/02/02 14:42:13;;;;;;;45.33;13.77;;;;;;;;;;5078233;28;20036;-71
2024/02/02 14:44:59;;;;;;;45.30;12.00;;;;;;;;;;5076680;28;20029;-72
2024/02/02 14:47:45;;;;;;;33.30;10.75;;;;;;;;;;5086569;28;20476;-71
2024/02/02 14:50:30;;;;;;;52.08;18.10;;;;;;;;;;5080783;28;20051;-71
2024/02/02 14:53:16;;;;;;;37.38;15.27;;;;;;;;;;5063151;28;20509;-71
2024/02/02 14:56:02;;;;;;;54.28;12.48;;;;;;;;;;5080711;28;20029;-72
2024/02/02 14:58:48;;;;;;;36.42;14.25;;;;;;;;;;5087913;28;20032;-72
2024/02/02 15:01:36;;;;;;;31.98;9.43;;;;;;;;;;5081299;28;20028;-73
2024/02/02 15:04:22;;;;;;;33.20;9.77;;;;;;;;;;5048981;28;20099;-73
2024/02/02 15:07:08;;;;;;;31.42;7.38;;;;;;;;;;5091521;28;20035;-72
2024/02/02 15:09:54;;;;;;;51.97;16.00;;;;;;;;;;5088929;28;20024;-73
2024/02/02 15:12:42;;;;;;;45.28;13.88;;;;;;;;;;5077820;28;20493;-71
2024/02/02 15:15:28;;;;;;;42.17;12.30;;;;;;;;;;5090517;28;20032;-71
2024/02/02 15:18:14;;;;;;;47.42;13.10;;;;;;;;;;5084847;28;20040;-70
2024/02/02 15:21:02;;;;;;;28.15;9.55;;;;;;;;;;5092650;28;20028;-71
2024/02/02 15:23:47;;;;;;;24.40;7.07;;;;;;;;;;5089718;28;20109;-71
2024/02/02 15:26:39;;;;;;;42.15;7.10;;;;;;;;;;5082486;28;20024;-71
2024/02/02 15:29:24;;;;;;;27.17;7.15;;;;;;;;;;5082303;28;20075;-71
2024/02/02 15:32:10;;;;;;;25.83;7.22;;;;;;;;;;5085190;28;20061;-72
2024/02/02 15:34:56;;;;;;;24.90;7.13;;;;;;;;;;5088504;28;20558;-72
2024/02/02 15:37:42;;;;;;;26.77;6.15;;;;;;;;;;5092424;28;20431;-73
2024/02/02 15:40:28;;;;;;;34.63;7.88;;;;;;;;;;5088638;28;20020;-73
2024/02/02 15:43:13;;;;;;;30.05;7.47;;;;;;;;;;5084231;28;20035;-72
2024/02/02 15:45:59;;;;;;;30.52;9.43;;;;;;;;;;5085440;28;20032;-71
2024/02/02 15:48:46;;;;;;;30.98;9.45;;;;;;;;;;5075879;28;20032;-72
2024/02/02 15:51:32;;;;;;;32.63;7.43;;;;;;;;;;5081794;28;20020;-72
2024/02/02 15:54:21;;;;;;;26.13;6.70;;;;;;;;;;5090263;28;20378;-71
2024/02/02 15:57:07;;;;;;;50.45;9.05;;;;;;;;;;5090669;28;20035;-71
2024/02/02 15:59:53;;;;;;;29.83;7.03;;;;;;;;;;5099419;28;20034;-71
2024/02/02 16:02:38;;;;;;;38.60;12.13;;;;;;;;;;5095195;28;20077;-72
2024/02/02 16:05:25;;;;;;;55.63;17.92;;;;;;;;;;5103292;28;20032;-71
2024/02/02 16:08:11;;;;;;;36.13;9.60;;;;;;;;;;5095706;28;20024;-71
2024/02/02 16:10:57;;;;;;;39.25;13.50;;;;;;;;;;5094918;28;20103;-71
2024/02/02 16:13:46;;;;;;;42.63;12.10;;;;;;;;;;5094457;28;20370;-72
2024/02/02 16:16:31;;;;;;;32.65;14.57;;;;;;;;;;5081978;28;20099;-71
2024/02/02 16:19:17;;;;;;;32.28;9.05;;;;;;;;;;5080625;28;20103;-71
2024/02/02 16:22:03;;;;;;;38.72;7.13;;;;;;;;;;5081047;28;20069;-71
2024/02/02 16:24:49;;;;;;;27.20;8.30;;;;;;;;;;5066503;28;20020;-71
2024/02/02 16:27:35;;;;;;;47.58;10.52;;;;;;;;;;5081033;28;20403;-71
2024/02/02 16:30:21;;;;;;;28.00;8.15;;;;;;;;;;5096044;28;20046;-72
2024/02/02 16:33:06;;;;;;;41.88;12.88;;;;;;;;;;5094962;28;20458;-71
2024/02/02 16:35:52;;;;;;;38.88;8.35;;;;;;;;;;5079879;28;20111;-71